Shankleville, Texas
Current Conditions -  °F | °C
As of 1:35 PM on Tuesday 21 Oct 2014 (Local Time) from KDRI Reporting Station
Clear Clear  
Wind Chill: 78°   Ceiling: Unl
Heat Index: 79°   Visibility: 10mi
Dew Point: 58°   Wind: 7mph
Humidity: 50%   Direction: 30°NNE
Pressure: 30.07"   Gusts: NA
Location:  31.0001°N, 93.6355°W
Report Text: KDRI 211835Z AUTO 03006KT 10SM CLR 26/14 A3007 RMK AO2 T02550144
Loading
Personal Weather Stations






























Interactive Weather Map
Tropical Storm Tracking
New forecast layout! Learn more

10-Day Weather Forecast

Advertisements
Track Severe Weather on mobile